Flight Track Log - Related Links

Times and Time Zones

All times are in EDT time to prevent confusion due to time zone crossing. See the USC105 flight status page for this flight to view local times or setup timezone preferences in your user account.

Time Position Orientation Groundspeed Altitude Reporting Facility
EDT Latitude Longitude Course Direction KTS MPH feet Rate Location/Type
Thu 05:55:52 AM 41.7830 -88.1720 107° East 146 168 5,800  Level FlightAware ADS-B
Thu 05:56:38 AM 41.7790 -88.1310 97° East 162 186 5,800 75 Level FlightAware ADS-B
Thu 05:57:12 AM 41.7722 -88.0600 97° East 192 221 5,900  Climbing Chicago Center
Thu 05:58:13 AM 41.7694 -87.9853 93° East 200 230 5,800  Descending Chicago Center
Thu 06:03:12 AM 41.7960 -87.6430 93° East 196 226 5,900 19 Climbing FlightAware ADS-B
Thu 06:03:37 AM 41.7990 -87.6180 81° East 196 226 5,900 95 Level FlightAware ADS-B
Thu 06:04:15 AM 41.8108 -87.5522 81° East 195 224 6,000 61 Climbing Chicago Center
Thu 06:05:16 AM 41.8233 -87.4811 77° East 196 226 6,000  Level Chicago Center
Thu 06:06:16 AM 41.8328 -87.4097 80° East 196 226 6,000  Level Chicago Center
Thu 06:07:17 AM 41.8375 -87.3361 85° East 196 226 6,000 -17 Level Chicago Center
Thu 06:12:08 AM 41.8760 -87.0020 85° East 196 226 5,900 -19 Descending FlightAware ADS-B
Thu 06:12:35 AM 41.8790 -86.9750 82° East 196 226 5,900  Level FlightAware ADS-B
Thu 06:14:07 AM 41.8980 -86.8550 78° East 196 226 5,900 -44 Level FlightAware ADS-B
Thu 06:14:52 AM 41.9030 -86.7990 83° East 211 243 5,800 -83 Descending FlightAware ADS-B
Thu 06:15:19 AM 41.9070 -86.7700 79° East 211 243 5,800  Level FlightAware ADS-B
Thu 06:16:07 AM 41.9110 -86.7080 85° East 211 243 5,800 58 Level FlightAware ADS-B
Thu 06:17:02 AM 41.9150 -86.6460 85° East 173 199 5,900 67 Climbing FlightAware ADS-B
Thu 06:17:37 AM 41.9230 -86.6050 75° East 196 226 5,900  Level FlightAware ADS-B
Thu 06:18:03 AM 41.9260 -86.5790 81° East 196 226 5,900  Level FlightAware ADS-B
Thu 06:18:39 AM 41.9350 -86.5181 81° East 191 220 5,900  Level Cleveland Center
Thu 06:19:22 AM 41.9375 -86.4619 87° East 193 222 5,900 -231 Level Chicago Center
Thu 06:20:23 AM 41.9450 -86.3892 82° East 196 226 5,500 -496 Descending Chicago Center
Thu 06:21:23 AM 41.9531 -86.3133 82° East 203 234 4,900 -248 Descending Chicago Center
Thu 06:22:24 AM 41.9661 -86.2392 77° East 205 236 5,000 50 Climbing Chicago Center
Thu 06:23:24 AM 41.9747 -86.1650 81° East 202 232 5,000  Level Chicago Center
Thu 06:24:24 AM 41.9881 -86.0917 76° East 201 231 5,000  Level Chicago Center
Thu 06:25:25 AM 41.9947 -86.0147 83° East 206 237 5,000  Level Chicago Center
Thu 06:26:25 AM 42.0011 -85.9386 84° East 206 237 5,000  Level Chicago Center
Thu 06:27:26 AM 42.0108 -85.8622 80° East 206 237 5,000  Level Chicago Center
Thu 06:28:26 AM 42.0167 -85.7861 84° East 206 237 5,000 50 Level Chicago Center
Thu 06:29:27 AM 42.0278 -85.7103 79° East 206 237 5,100  Climbing Chicago Center
Thu 06:30:27 AM 42.0372 -85.6364 80° East 203 234 5,000 -50 Descending Chicago Center
Thu 06:31:28 AM 42.0461 -85.5633 81° East 200 230 5,000  Level Chicago Center
Thu 06:32:28 AM 42.0517 -85.4906 84° East 196 226 5,000  Level Chicago Center
Thu 06:33:29 AM 42.0600 -85.4183 81° East 195 224 5,000  Level Chicago Center
Thu 06:34:29 AM 42.0681 -85.3464 81° East 195 224 5,000  Level Chicago Center
Thu 06:35:30 AM 42.0747 -85.2736 83° East 195 224 5,000  Level Chicago Center
Thu 06:36:30 AM 42.0856 -85.2022 78° East 195 224 5,000  Level Chicago Center
Thu 06:37:31 AM 42.0925 -85.1300 83° East 194 223 5,000  Level Chicago Center
Thu 06:38:32 AM 42.0981 -85.0586 84° East 192 221 5,000  Level Chicago Center
Thu 06:39:32 AM 42.1100 -84.9894 77° East 191 220 5,000  Level Chicago Center
Thu 06:40:33 AM 42.1186 -84.9183 81° East 191 220 5,000  Level Chicago Center
Thu 06:41:33 AM 42.1211 -84.8478 87° East 189 217 5,000 50 Level Chicago Center
Thu 06:42:34 AM 42.1283 -84.7772 82° East 190 219 5,100 50 Climbing Chicago Center
Thu 06:43:34 AM 42.1328 -84.7064 85° East 190 219 5,100 -50 Level Chicago Center
Thu 06:44:35 AM 42.1389 -84.6350 83° East 191 220 5,000 -50 Descending Chicago Center
Thu 06:45:35 AM 42.1469 -84.5500 83° East 191 220 5,000 50 Level Chicago Center
Thu 06:46:36 AM 42.1542 -84.4922 80° East 189 217 5,100 49 Climbing Chicago Center
Thu 06:47:37 AM 42.1647 -84.4236 78° East 187 215 5,100 -132 Level Chicago Center
Thu 06:48:07 AM 42.1708 -84.3747 80° East 190 219 4,900 -146 Descending Cleveland Center
Thu 06:48:59 AM 42.1722 -84.3150 88° East 192 221 4,900  Level Cleveland Center
Thu 06:49:09 AM 42.1722 -84.3028 90° East 192 221 4,900  Level Cleveland Center
Thu 06:49:59 AM 42.1742 -84.2419 88° East 190 219 4,900  Level Cleveland Center
Thu 06:50:10 AM 42.1739 -84.2319 92° East 190 219 4,900  Level Cleveland Center
Thu 06:50:54 AM 42.1753 -84.1803 88° East 186 214 4,900  Level Cleveland Center
Thu 06:51:11 AM 42.1764 -84.1636 85° East 186 214 4,900  Level Cleveland Center
Thu 06:52:13 AM 42.1836 -84.0961 82° East 184 212 4,900  Level Cleveland Center
Thu 06:53:14 AM 42.1939 -84.0314 78° East 178 205 4,900 -385 Level Cleveland Center
Thu 06:54:02 AM 42.2036 -83.9700 78° East 194 223 4,200 -787 Descending Cleveland Center
Thu 06:54:15 AM 42.2039 -83.9619 87° East 185 213 4,100 -689 Descending Cleveland Center
Thu 06:55:03 AM 42.2119 -83.8953 81° East 196 226 3,500 -677 Descending Cleveland Center
Thu 06:55:17 AM 42.2103 -83.8878 107° East 195 224 3,400 -636 Descending Cleveland Center
Thu 06:56:09 AM 42.2186 -83.8117 82° East 194 223 2,800 -590 Descending Cleveland Center
Thu 06:56:18 AM 42.2178 -83.8006 96° East 196 226 2,800 90 Level Cleveland Center
Thu 06:57:16 AM 42.2286 -83.7425 76° East 167 192 2,900 97 Climbing Cleveland Center
Thu 06:57:20 AM 42.2278 -83.7372 102° East 185 213 2,900 -738 Level Cleveland Center
Thu 06:58:21 AM 42.2367 -83.6725 79° East 178 205 2,100 -514 Descending Cleveland Center
Thu 06:59:05 AM 42.2406 -83.6203 84° East 177 204 2,000 -290 Descending Cleveland Center
Thu 06:59:23 AM 42.2414 -83.6044 86° East 180 207 1,800 -984 Descending Cleveland Center
Thu 07:00:06 AM 42.2431 -83.5614 87° East 148 170 1,000 -885 Descending Cleveland Center
Thu 07:00:24 AM 42.2431 -83.5492 90° East 167 192 900 -333 Descending Cleveland Center

Login

Don't have an account? Register now (free) for customized features, flight alerts, and more!